TAX73JC BIKF-EDDH
Flight info
| Callsign | TAX73JC |
|---|---|
| Flight time | 2h 34m |
| Altitude | 37000 |
| Route | OSKUM3A OSKUM DCT RATSU/N0485F370 DCT DEVBI DCT BAMRA DCT LAMRO DCT ARTEX DCT VAXIT DCT ASMUS DCT ATTUS DCT GIKOG DCT OSTOR T904 RIBSO RIBSO7A |
| Aircraft | B77L/H-SDE1E2E3FGHIJ2J3J4J5M1RWXY/LB1D1 |
Departure
| Time | 2026-05-06 08:41 |
|---|---|
| Airport | Keflavik International Airport (BIKF) |
Arrival
| Time | 2026-05-06 11:15 |
|---|---|
| Airport | Hamburg Helmut Schmidt Airport (EDDH) |
| Time | Latitude | Longitude | Altitude | Speed | Heading |
|---|---|---|---|---|---|
| 2026-05-06 08:17 | 63.99392 | -22.62875 | 152 ft | 0 kts | 270° |
| 2026-05-06 08:27 | 63.99392 | -22.62861 | 153 ft | 4 kts | 268° |
| 2026-05-06 08:28 | 63.99395 | -22.62801 | 146 ft | 4 kts | 254° |
| 2026-05-06 08:28 | 63.99405 | -22.62744 | 145 ft | 4 kts | 238° |
| 2026-05-06 08:28 | 63.99421 | -22.62696 | 147 ft | 4 kts | 221° |
| 2026-05-06 08:28 | 63.99441 | -22.62664 | 147 ft | 2 kts | 204° |
| 2026-05-06 08:29 | 63.99442 | -22.62664 | 147 ft | 0 kts | 204° |
| 2026-05-06 08:33 | 63.99432 | -22.62674 | 147 ft | 7 kts | 204° |
| 2026-05-06 08:33 | 63.99353 | -22.62740 | 147 ft | 14 kts | 189° |
| 2026-05-06 08:33 | 63.99259 | -22.62717 | 147 ft | 13 kts | 149° |
| 2026-05-06 08:33 | 63.99179 | -22.62643 | 147 ft | 12 kts | 126° |
| 2026-05-06 08:34 | 63.99172 | -22.62447 | 147 ft | 13 kts | 89° |
| 2026-05-06 08:34 | 63.99173 | -22.62006 | 147 ft | 16 kts | 89° |
| 2026-05-06 08:34 | 63.99174 | -22.61826 | 149 ft | 17 kts | 90° |
| 2026-05-06 08:35 | 63.99174 | -22.61556 | 154 ft | 17 kts | 90° |
| 2026-05-06 08:35 | 63.99173 | -22.61286 | 162 ft | 17 kts | 90° |
| 2026-05-06 08:35 | 63.99171 | -22.61022 | 167 ft | 16 kts | 99° |
| 2026-05-06 08:35 | 63.99083 | -22.60938 | 173 ft | 15 kts | 179° |
| 2026-05-06 08:36 | 63.98975 | -22.60938 | 176 ft | 17 kts | 181° |
| 2026-05-06 08:36 | 63.98817 | -22.60938 | 172 ft | 26 kts | 180° |
| 2026-05-06 08:36 | 63.98632 | -22.60939 | 173 ft | 27 kts | 180° |
| 2026-05-06 08:36 | 63.98447 | -22.60938 | 167 ft | 27 kts | 180° |
| 2026-05-06 08:37 | 63.98261 | -22.60939 | 169 ft | 27 kts | 180° |
| 2026-05-06 08:37 | 63.98076 | -22.60939 | 172 ft | 27 kts | 179° |
| 2026-05-06 08:37 | 63.97891 | -22.60939 | 174 ft | 27 kts | 180° |
| 2026-05-06 08:37 | 63.97706 | -22.60941 | 174 ft | 27 kts | 180° |
| 2026-05-06 08:38 | 63.97520 | -22.60941 | 170 ft | 27 kts | 180° |
| 2026-05-06 08:38 | 63.97335 | -22.60940 | 167 ft | 27 kts | 180° |
| 2026-05-06 08:38 | 63.97148 | -22.60942 | 160 ft | 28 kts | 180° |
| 2026-05-06 08:38 | 63.96961 | -22.60941 | 154 ft | 23 kts | 180° |
| 2026-05-06 08:39 | 63.96791 | -22.60941 | 147 ft | 26 kts | 180° |
| 2026-05-06 08:39 | 63.96603 | -22.60940 | 140 ft | 28 kts | 180° |
| 2026-05-06 08:39 | 63.96478 | -22.60910 | 140 ft | 16 kts | 142° |
| 2026-05-06 08:39 | 63.96460 | -22.60681 | 147 ft | 15 kts | 91° |
| 2026-05-06 08:40 | 63.96493 | -22.60540 | 150 ft | 7 kts | 359° |
| 2026-05-06 08:40 | 63.96576 | -22.60542 | 152 ft | 25 kts | 0° |
| 2026-05-06 08:40 | 63.96927 | -22.60531 | 164 ft | 84 kts | 359° |
| 2026-05-06 08:40 | 63.97731 | -22.60548 | 183 ft | 143 kts | 357° |
| 2026-05-06 08:41 | 63.98750 | -22.60640 | 690 ft | 143 kts | 6° |
| 2026-05-06 08:41 | 63.99728 | -22.60634 | 1474 ft | 141 kts | 7° |
| 2026-05-06 08:41 | 64.00767 | -22.60614 | 1925 ft | 164 kts | 7° |
| 2026-05-06 08:41 | 64.02005 | -22.60606 | 2198 ft | 193 kts | 7° |
| 2026-05-06 08:42 | 64.03447 | -22.60505 | 2412 ft | 219 kts | 15° |
| 2026-05-06 08:42 | 64.04851 | -22.59063 | 3036 ft | 224 kts | 41° |
| 2026-05-06 08:42 | 64.05834 | -22.56397 | 4095 ft | 220 kts | 60° |
| 2026-05-06 08:42 | 64.06364 | -22.53010 | 4758 ft | 236 kts | 83° |
| 2026-05-06 08:43 | 64.06362 | -22.49204 | 5423 ft | 246 kts | 89° |
| 2026-05-06 08:43 | 64.06338 | -22.45302 | 6385 ft | 246 kts | 87° |
| 2026-05-06 08:43 | 64.06195 | -22.41383 | 7164 ft | 255 kts | 103° |
| 2026-05-06 08:43 | 64.05382 | -22.37709 | 7797 ft | 265 kts | 117° |
| 2026-05-06 08:44 | 64.04459 | -22.34038 | 8657 ft | 267 kts | 116° |
| 2026-05-06 08:44 | 64.03531 | -22.30317 | 9500 ft | 273 kts | 116° |
| 2026-05-06 08:44 | 64.02581 | -22.26528 | 10344 ft | 276 kts | 116° |
| 2026-05-06 08:44 | 64.01609 | -22.22651 | 10940 ft | 291 kts | 115° |
| 2026-05-06 08:45 | 64.00560 | -22.18443 | 11158 ft | 319 kts | 117° |
| 2026-05-06 08:45 | 63.99415 | -22.13862 | 11390 ft | 346 kts | 117° |
| 2026-05-06 08:45 | 63.98192 | -22.08994 | 12062 ft | 359 kts | 116° |
| 2026-05-06 08:45 | 63.96938 | -22.04027 | 13028 ft | 365 kts | 117° |
| 2026-05-06 08:46 | 63.95661 | -21.98990 | 14111 ft | 369 kts | 117° |
| 2026-05-06 08:46 | 63.94377 | -21.93905 | 14994 ft | 375 kts | 117° |
| 2026-05-06 08:46 | 63.93067 | -21.88709 | 15875 ft | 379 kts | 116° |
| 2026-05-06 08:46 | 63.91750 | -21.83512 | 16930 ft | 380 kts | 115° |
| 2026-05-06 08:47 | 63.90416 | -21.78262 | 17795 ft | 385 kts | 116° |
| 2026-05-06 08:47 | 63.89075 | -21.73012 | 18829 ft | 385 kts | 116° |
| 2026-05-06 08:47 | 63.87726 | -21.67714 | 19564 ft | 391 kts | 116° |
| 2026-05-06 08:47 | 63.86347 | -21.62323 | 20222 ft | 397 kts | 116° |
| 2026-05-06 08:48 | 63.84955 | -21.56899 | 21000 ft | 400 kts | 116° |
| 2026-05-06 08:48 | 63.83541 | -21.51426 | 21750 ft | 404 kts | 116° |
| 2026-05-06 08:48 | 63.82113 | -21.45906 | 22528 ft | 408 kts | 117° |
| 2026-05-06 08:48 | 63.80675 | -21.40348 | 23339 ft | 410 kts | 116° |
| 2026-05-06 08:49 | 63.79227 | -21.34754 | 24019 ft | 415 kts | 116° |
| 2026-05-06 08:49 | 63.77754 | -21.29085 | 24495 ft | 421 kts | 117° |
| 2026-05-06 08:49 | 63.76366 | -21.23222 | 24912 ft | 424 kts | 109° |
| 2026-05-06 08:49 | 63.75682 | -21.16783 | 25331 ft | 420 kts | 94° |
| 2026-05-06 08:50 | 63.75372 | -21.10158 | 25755 ft | 428 kts | 94° |
| 2026-05-06 08:50 | 63.75012 | -21.03398 | 26034 ft | 440 kts | 95° |
| 2026-05-06 08:50 | 63.74598 | -20.96499 | 26505 ft | 446 kts | 96° |
| 2026-05-06 08:50 | 63.74166 | -20.89550 | 27076 ft | 449 kts | 96° |
| 2026-05-06 08:51 | 63.73717 | -20.82532 | 27567 ft | 454 kts | 96° |
| 2026-05-06 08:51 | 63.73255 | -20.75410 | 27872 ft | 463 kts | 96° |
| 2026-05-06 08:51 | 63.72783 | -20.68205 | 28445 ft | 465 kts | 96° |
| 2026-05-06 08:51 | 63.72311 | -20.60947 | 28892 ft | 471 kts | 95° |
| 2026-05-06 08:52 | 63.71819 | -20.53590 | 29187 ft | 478 kts | 97° |
| 2026-05-06 08:52 | 63.71313 | -20.46163 | 29733 ft | 480 kts | 98° |
| 2026-05-06 08:52 | 63.70438 | -20.38882 | 30165 ft | 485 kts | 110° |
| 2026-05-06 08:52 | 63.69068 | -20.31893 | 30554 ft | 489 kts | 114° |
| 2026-05-06 08:53 | 63.67577 | -20.24995 | 30934 ft | 491 kts | 115° |
| 2026-05-06 08:53 | 63.66055 | -20.18109 | 31343 ft | 492 kts | 115° |
| 2026-05-06 08:53 | 63.64538 | -20.11193 | 31756 ft | 493 kts | 115° |
| 2026-05-06 08:53 | 63.63035 | -20.04234 | 32135 ft | 495 kts | 114° |
| 2026-05-06 08:54 | 63.61557 | -19.97235 | 32524 ft | 496 kts | 114° |
| 2026-05-06 08:54 | 63.60090 | -19.90203 | 32925 ft | 498 kts | 114° |
| 2026-05-06 08:54 | 63.58620 | -19.83111 | 33149 ft | 503 kts | 114° |
| 2026-05-06 08:55 | 63.55623 | -19.68754 | 33927 ft | 505 kts | 114° |
| 2026-05-06 08:55 | 63.54134 | -19.61639 | 34416 ft | 504 kts | 113° |
| 2026-05-06 08:55 | 63.52640 | -19.54524 | 34707 ft | 506 kts | 114° |
| 2026-05-06 08:55 | 63.51155 | -19.47474 | 35020 ft | 506 kts | 114° |
| 2026-05-06 08:56 | 63.49637 | -19.40324 | 35168 ft | 512 kts | 114° |
| 2026-05-06 08:56 | 63.48117 | -19.33186 | 35705 ft | 506 kts | 115° |
| 2026-05-06 08:56 | 63.46598 | -19.26107 | 36176 ft | 502 kts | 114° |
| 2026-05-06 08:56 | 63.45087 | -19.19064 | 36452 ft | 504 kts | 114° |
| 2026-05-06 08:57 | 63.43566 | -19.11983 | 36672 ft | 506 kts | 114° |
| 2026-05-06 08:57 | 63.42040 | -19.04878 | 36879 ft | 509 kts | 115° |
| 2026-05-06 08:57 | 63.40513 | -18.97789 | 37208 ft | 506 kts | 114° |
| 2026-05-06 08:58 | 63.37447 | -18.83683 | 37178 ft | 505 kts | 114° |
| 2026-05-06 08:58 | 63.34348 | -18.69583 | 37176 ft | 509 kts | 115° |
| 2026-05-06 08:59 | 63.31217 | -18.55424 | 37196 ft | 511 kts | 115° |
| 2026-05-06 08:59 | 63.28198 | -18.41827 | 37159 ft | 509 kts | 115° |
| 2026-05-06 09:00 | 63.25101 | -18.27972 | 37151 ft | 505 kts | 115° |
| 2026-05-06 09:00 | 63.21986 | -18.14078 | 37155 ft | 502 kts | 115° |
| 2026-05-06 09:01 | 63.18847 | -18.00221 | 37146 ft | 507 kts | 115° |
| 2026-05-06 09:01 | 63.15652 | -17.86179 | 37163 ft | 512 kts | 116° |
| 2026-05-06 09:02 | 63.12436 | -17.72141 | 37139 ft | 512 kts | 115° |
| 2026-05-06 09:02 | 63.09188 | -17.58088 | 37154 ft | 514 kts | 115° |
| 2026-05-06 09:03 | 63.05934 | -17.44103 | 37128 ft | 511 kts | 116° |
| 2026-05-06 09:03 | 63.02691 | -17.30216 | 37129 ft | 510 kts | 116° |
| 2026-05-06 09:04 | 62.99433 | -17.16369 | 37139 ft | 509 kts | 117° |
| 2026-05-06 09:04 | 62.96161 | -17.02533 | 37130 ft | 511 kts | 116° |
| 2026-05-06 09:05 | 62.92847 | -16.88643 | 37131 ft | 515 kts | 116° |
| 2026-05-06 09:05 | 62.89517 | -16.74755 | 37120 ft | 510 kts | 117° |
| 2026-05-06 09:06 | 62.86206 | -16.61041 | 37129 ft | 511 kts | 117° |
| 2026-05-06 09:06 | 62.82858 | -16.47243 | 37125 ft | 515 kts | 117° |
| 2026-05-06 09:07 | 62.79494 | -16.33492 | 37107 ft | 511 kts | 117° |
| 2026-05-06 09:07 | 62.76125 | -16.19794 | 37126 ft | 515 kts | 118° |
| 2026-05-06 09:08 | 62.72724 | -16.06033 | 37128 ft | 514 kts | 118° |
| 2026-05-06 09:08 | 62.69317 | -15.92357 | 37105 ft | 513 kts | 118° |
| 2026-05-06 09:09 | 62.65880 | -15.78698 | 37117 ft | 515 kts | 118° |
| 2026-05-06 09:09 | 62.62436 | -15.65042 | 37102 ft | 512 kts | 118° |
| 2026-05-06 09:10 | 62.59013 | -15.51500 | 37083 ft | 513 kts | 118° |
| 2026-05-06 09:10 | 62.55546 | -15.37941 | 37089 ft | 516 kts | 118° |
| 2026-05-06 09:11 | 62.52059 | -15.24345 | 37077 ft | 515 kts | 119° |
| 2026-05-06 09:11 | 62.48553 | -15.10789 | 37089 ft | 520 kts | 119° |
| 2026-05-06 09:12 | 62.45018 | -14.97164 | 37099 ft | 518 kts | 119° |
| 2026-05-06 09:12 | 62.41487 | -14.83705 | 37078 ft | 514 kts | 119° |
| 2026-05-06 09:13 | 62.37946 | -14.70260 | 37100 ft | 518 kts | 120° |
| 2026-05-06 09:13 | 62.34367 | -14.56728 | 37075 ft | 523 kts | 120° |
| 2026-05-06 09:14 | 62.30737 | -14.43080 | 37069 ft | 525 kts | 120° |
| 2026-05-06 09:14 | 62.27085 | -14.29404 | 37062 ft | 527 kts | 120° |
| 2026-05-06 09:15 | 62.23404 | -14.15787 | 37073 ft | 529 kts | 120° |
| 2026-05-06 09:15 | 62.20315 | -14.04380 | 37075 ft | 534 kts | 120° |
| 2026-05-06 09:16 | 62.16540 | -13.90576 | 37068 ft | 539 kts | 121° |
| 2026-05-06 09:16 | 62.12750 | -13.76770 | 37041 ft | 535 kts | 121° |
| 2026-05-06 09:17 | 62.08992 | -13.63148 | 37054 ft | 531 kts | 121° |
| 2026-05-06 09:17 | 62.05233 | -13.49618 | 37059 ft | 529 kts | 121° |
| 2026-05-06 09:18 | 62.01470 | -13.36152 | 37063 ft | 529 kts | 121° |
| 2026-05-06 09:18 | 61.97687 | -13.22695 | 37058 ft | 530 kts | 121° |
| 2026-05-06 09:19 | 61.93888 | -13.09256 | 37057 ft | 531 kts | 121° |
| 2026-05-06 09:19 | 61.90092 | -12.95903 | 37055 ft | 533 kts | 122° |
| 2026-05-06 09:20 | 61.86245 | -12.82456 | 37059 ft | 534 kts | 122° |
| 2026-05-06 09:20 | 61.82374 | -12.69004 | 37057 ft | 536 kts | 122° |
| 2026-05-06 09:21 | 61.78482 | -12.55557 | 37054 ft | 537 kts | 122° |
| 2026-05-06 09:21 | 61.74568 | -12.42116 | 37056 ft | 537 kts | 122° |
| 2026-05-06 09:22 | 61.70642 | -12.28709 | 37054 ft | 537 kts | 122° |
| 2026-05-06 09:22 | 61.66700 | -12.15332 | 37036 ft | 537 kts | 122° |
| 2026-05-06 09:23 | 61.62747 | -12.01992 | 37057 ft | 537 kts | 122° |
| 2026-05-06 09:23 | 61.58778 | -11.88675 | 37051 ft | 538 kts | 123° |
| 2026-05-06 09:24 | 61.54796 | -11.75394 | 37050 ft | 537 kts | 123° |
| 2026-05-06 09:24 | 61.50804 | -11.62157 | 37049 ft | 537 kts | 123° |
| 2026-05-06 09:25 | 61.46798 | -11.48948 | 37052 ft | 537 kts | 123° |
| 2026-05-06 09:25 | 61.42782 | -11.35781 | 37032 ft | 537 kts | 123° |
| 2026-05-06 09:26 | 61.38750 | -11.22642 | 37056 ft | 538 kts | 123° |
| 2026-05-06 09:26 | 61.34702 | -11.09521 | 37050 ft | 538 kts | 123° |
| 2026-05-06 09:27 | 61.30637 | -10.96423 | 37053 ft | 538 kts | 123° |
| 2026-05-06 09:27 | 61.26562 | -10.83363 | 37052 ft | 539 kts | 124° |
| 2026-05-06 09:28 | 61.22469 | -10.70324 | 37052 ft | 539 kts | 124° |
| 2026-05-06 09:28 | 61.18365 | -10.57322 | 37052 ft | 539 kts | 124° |
| 2026-05-06 09:29 | 61.14251 | -10.44359 | 37068 ft | 538 kts | 124° |
| 2026-05-06 09:29 | 61.10125 | -10.31432 | 37056 ft | 538 kts | 124° |
| 2026-05-06 09:30 | 61.05992 | -10.18550 | 37052 ft | 538 kts | 124° |
| 2026-05-06 09:30 | 61.01853 | -10.05716 | 37055 ft | 537 kts | 124° |
| 2026-05-06 09:31 | 60.98141 | -9.92362 | 37055 ft | 538 kts | 115° |
| 2026-05-06 09:31 | 60.95037 | -9.78371 | 37050 ft | 538 kts | 115° |
| 2026-05-06 09:32 | 60.91906 | -9.64394 | 37078 ft | 538 kts | 116° |
| 2026-05-06 09:32 | 60.88737 | -9.50548 | 37058 ft | 540 kts | 116° |
| 2026-05-06 09:33 | 60.85495 | -9.36542 | 37055 ft | 540 kts | 116° |
| 2026-05-06 09:33 | 60.82258 | -9.22642 | 37061 ft | 540 kts | 116° |
| 2026-05-06 09:34 | 60.79009 | -9.08759 | 37057 ft | 540 kts | 116° |
| 2026-05-06 09:34 | 60.75766 | -8.94989 | 37057 ft | 540 kts | 116° |
| 2026-05-06 09:35 | 60.72492 | -8.81167 | 37055 ft | 540 kts | 117° |
| 2026-05-06 09:35 | 60.69198 | -8.67370 | 37060 ft | 540 kts | 117° |
| 2026-05-06 09:36 | 60.65886 | -8.53599 | 37059 ft | 541 kts | 117° |
| 2026-05-06 09:36 | 60.62561 | -8.39848 | 37061 ft | 541 kts | 117° |
| 2026-05-06 09:37 | 60.59223 | -8.26122 | 37061 ft | 541 kts | 117° |
| 2026-05-06 09:37 | 60.55870 | -8.12421 | 37076 ft | 541 kts | 117° |
| 2026-05-06 09:38 | 60.52502 | -7.98744 | 37062 ft | 542 kts | 117° |
| 2026-05-06 09:38 | 60.49117 | -7.85082 | 37058 ft | 541 kts | 118° |
| 2026-05-06 09:39 | 60.45717 | -7.71447 | 37061 ft | 542 kts | 118° |
| 2026-05-06 09:39 | 60.42302 | -7.57833 | 37060 ft | 542 kts | 118° |
| 2026-05-06 09:40 | 60.38870 | -7.44238 | 37065 ft | 543 kts | 118° |
| 2026-05-06 09:40 | 60.33693 | -7.23884 | 37063 ft | 543 kts | 118° |
| 2026-05-06 09:41 | 60.30248 | -7.10445 | 37063 ft | 543 kts | 118° |
| 2026-05-06 09:41 | 60.26764 | -6.96934 | 37034 ft | 543 kts | 118° |
| 2026-05-06 09:42 | 60.23268 | -6.83459 | 37065 ft | 544 kts | 118° |
| 2026-05-06 09:42 | 60.19749 | -6.69978 | 37077 ft | 545 kts | 118° |
| 2026-05-06 09:43 | 60.16217 | -6.56523 | 37066 ft | 544 kts | 119° |
| 2026-05-06 09:43 | 60.12670 | -6.43095 | 37064 ft | 544 kts | 119° |
| 2026-05-06 09:44 | 60.09117 | -6.29729 | 37062 ft | 543 kts | 119° |
| 2026-05-06 09:44 | 60.05553 | -6.16397 | 37062 ft | 543 kts | 119° |
| 2026-05-06 09:45 | 60.01978 | -6.03101 | 37046 ft | 542 kts | 119° |
| 2026-05-06 09:45 | 59.98394 | -5.89855 | 37066 ft | 542 kts | 120° |
| 2026-05-06 09:46 | 59.94793 | -5.76618 | 37070 ft | 542 kts | 120° |
| 2026-05-06 09:46 | 59.91182 | -5.63421 | 37076 ft | 542 kts | 120° |
| 2026-05-06 09:47 | 59.87559 | -5.50262 | 37061 ft | 542 kts | 120° |
| 2026-05-06 09:47 | 59.83919 | -5.37114 | 37064 ft | 542 kts | 120° |
| 2026-05-06 09:48 | 59.80270 | -5.24011 | 37078 ft | 542 kts | 121° |
| 2026-05-06 09:48 | 59.76608 | -5.10937 | 37058 ft | 542 kts | 121° |
| 2026-05-06 09:49 | 59.72948 | -4.97945 | 37072 ft | 543 kts | 121° |
| 2026-05-06 09:49 | 59.69248 | -4.84884 | 37071 ft | 544 kts | 121° |
| 2026-05-06 09:50 | 59.65528 | -4.71825 | 37072 ft | 545 kts | 121° |
| 2026-05-06 09:50 | 59.61792 | -4.58787 | 37071 ft | 546 kts | 121° |
| 2026-05-06 09:51 | 59.58034 | -4.45745 | 37068 ft | 546 kts | 121° |
| 2026-05-06 09:51 | 59.54262 | -4.32730 | 37073 ft | 547 kts | 122° |
| 2026-05-06 09:52 | 59.50476 | -4.19737 | 37065 ft | 546 kts | 122° |
| 2026-05-06 09:52 | 59.46678 | -4.06771 | 37067 ft | 547 kts | 122° |
| 2026-05-06 09:53 | 59.42872 | -3.93842 | 37073 ft | 547 kts | 122° |
| 2026-05-06 09:53 | 59.39214 | -3.80727 | 37081 ft | 548 kts | 120° |
| 2026-05-06 09:54 | 59.35662 | -3.67517 | 37071 ft | 547 kts | 120° |
| 2026-05-06 09:54 | 59.32089 | -3.54355 | 37077 ft | 547 kts | 120° |
| 2026-05-06 09:55 | 59.28478 | -3.41269 | 37078 ft | 546 kts | 120° |
| 2026-05-06 09:55 | 59.24844 | -3.28233 | 37065 ft | 545 kts | 121° |
| 2026-05-06 09:56 | 59.21210 | -3.15270 | 37079 ft | 544 kts | 121° |
| 2026-05-06 09:56 | 59.17570 | -3.02351 | 37074 ft | 543 kts | 121° |
| 2026-05-06 09:57 | 59.13923 | -2.89471 | 37078 ft | 542 kts | 121° |
| 2026-05-06 09:57 | 59.10265 | -2.76626 | 37083 ft | 542 kts | 121° |
| 2026-05-06 09:58 | 59.06596 | -2.63816 | 37085 ft | 542 kts | 121° |
| 2026-05-06 09:58 | 59.02919 | -2.51049 | 37083 ft | 542 kts | 122° |
| 2026-05-06 09:59 | 58.99230 | -2.38311 | 37078 ft | 541 kts | 122° |
| 2026-05-06 09:59 | 58.95537 | -2.25625 | 37080 ft | 540 kts | 122° |
| 2026-05-06 10:00 | 58.91834 | -2.12979 | 37085 ft | 539 kts | 122° |
| 2026-05-06 10:00 | 58.88123 | -2.00374 | 37090 ft | 539 kts | 122° |
| 2026-05-06 10:01 | 58.84402 | -1.87805 | 37077 ft | 539 kts | 122° |
| 2026-05-06 10:01 | 58.81301 | -1.77381 | 37081 ft | 538 kts | 122° |
| 2026-05-06 10:02 | 58.77564 | -1.64880 | 37091 ft | 538 kts | 123° |
| 2026-05-06 10:02 | 58.73812 | -1.52398 | 37088 ft | 538 kts | 123° |
| 2026-05-06 10:03 | 58.70050 | -1.39949 | 37091 ft | 538 kts | 123° |
| 2026-05-06 10:03 | 58.66278 | -1.27533 | 37090 ft | 538 kts | 123° |
| 2026-05-06 10:04 | 58.62493 | -1.15138 | 37091 ft | 538 kts | 123° |
| 2026-05-06 10:04 | 58.58696 | -1.02773 | 37089 ft | 538 kts | 123° |
| 2026-05-06 10:05 | 58.54893 | -0.90453 | 37090 ft | 538 kts | 123° |
| 2026-05-06 10:05 | 58.51075 | -0.78149 | 37090 ft | 537 kts | 123° |
| 2026-05-06 10:06 | 58.47247 | -0.65876 | 37057 ft | 537 kts | 123° |
| 2026-05-06 10:06 | 58.43416 | -0.53660 | 37081 ft | 536 kts | 124° |
| 2026-05-06 10:07 | 58.39576 | -0.41476 | 37089 ft | 536 kts | 124° |
| 2026-05-06 10:07 | 58.35726 | -0.29325 | 37096 ft | 535 kts | 124° |
| 2026-05-06 10:08 | 58.31867 | -0.17210 | 37094 ft | 535 kts | 124° |
| 2026-05-06 10:08 | 58.27999 | -0.05126 | 37097 ft | 535 kts | 124° |
| 2026-05-06 10:09 | 58.24120 | 0.06930 | 37097 ft | 535 kts | 124° |
| 2026-05-06 10:09 | 58.20228 | 0.18963 | 37095 ft | 534 kts | 124° |
| 2026-05-06 10:10 | 58.16338 | 0.30929 | 37090 ft | 532 kts | 124° |
| 2026-05-06 10:10 | 58.12447 | 0.42840 | 37094 ft | 532 kts | 124° |
| 2026-05-06 10:11 | 58.08550 | 0.54709 | 37092 ft | 531 kts | 125° |
| 2026-05-06 10:11 | 58.04646 | 0.66537 | 37093 ft | 530 kts | 125° |
| 2026-05-06 10:12 | 58.00736 | 0.78326 | 37088 ft | 530 kts | 125° |
| 2026-05-06 10:12 | 57.96819 | 0.90078 | 37090 ft | 529 kts | 125° |
| 2026-05-06 10:13 | 57.92894 | 1.01796 | 37089 ft | 529 kts | 125° |
| 2026-05-06 10:13 | 57.89027 | 1.13286 | 37083 ft | 528 kts | 126° |
| 2026-05-06 10:14 | 57.85090 | 1.24925 | 37081 ft | 527 kts | 126° |
| 2026-05-06 10:14 | 57.81148 | 1.36523 | 37090 ft | 527 kts | 126° |
| 2026-05-06 10:15 | 57.77198 | 1.48088 | 37088 ft | 527 kts | 126° |
| 2026-05-06 10:15 | 57.73232 | 1.59643 | 37091 ft | 527 kts | 126° |
| 2026-05-06 10:16 | 57.69254 | 1.71176 | 37089 ft | 527 kts | 126° |
| 2026-05-06 10:16 | 57.65268 | 1.82679 | 37080 ft | 527 kts | 126° |
| 2026-05-06 10:17 | 57.61275 | 1.94148 | 37085 ft | 527 kts | 126° |
| 2026-05-06 10:17 | 57.57274 | 2.05582 | 37087 ft | 527 kts | 127° |
| 2026-05-06 10:18 | 57.53258 | 2.17007 | 37077 ft | 526 kts | 127° |
| 2026-05-06 10:18 | 57.49242 | 2.28375 | 37076 ft | 526 kts | 127° |
| 2026-05-06 10:19 | 57.45208 | 2.39742 | 37058 ft | 526 kts | 127° |
| 2026-05-06 10:19 | 57.41171 | 2.51062 | 37063 ft | 526 kts | 127° |
| 2026-05-06 10:20 | 57.37127 | 2.62350 | 37062 ft | 526 kts | 127° |
| 2026-05-06 10:20 | 57.33078 | 2.73599 | 37046 ft | 524 kts | 127° |
| 2026-05-06 10:21 | 57.29022 | 2.84815 | 37048 ft | 523 kts | 127° |
| 2026-05-06 10:21 | 57.24969 | 2.95971 | 37074 ft | 523 kts | 127° |
| 2026-05-06 10:22 | 57.20911 | 3.07090 | 37065 ft | 522 kts | 128° |
| 2026-05-06 10:22 | 57.16847 | 3.18173 | 37077 ft | 522 kts | 128° |
| 2026-05-06 10:23 | 57.12776 | 3.29224 | 37076 ft | 521 kts | 128° |
| 2026-05-06 10:23 | 57.08690 | 3.40268 | 37074 ft | 521 kts | 128° |
| 2026-05-06 10:24 | 57.04603 | 3.51269 | 37061 ft | 521 kts | 128° |
| 2026-05-06 10:24 | 57.00670 | 3.62435 | 37079 ft | 522 kts | 125° |
| 2026-05-06 10:25 | 56.96926 | 3.73828 | 37079 ft | 521 kts | 124° |
| 2026-05-06 10:25 | 56.93161 | 3.85188 | 37051 ft | 521 kts | 125° |
| 2026-05-06 10:26 | 56.89371 | 3.96485 | 37066 ft | 521 kts | 125° |
| 2026-05-06 10:26 | 56.85570 | 4.07747 | 37062 ft | 521 kts | 125° |
| 2026-05-06 10:27 | 56.81756 | 4.19000 | 37051 ft | 520 kts | 126° |
| 2026-05-06 10:27 | 56.77938 | 4.30223 | 37059 ft | 520 kts | 126° |
| 2026-05-06 10:28 | 56.74116 | 4.41404 | 37052 ft | 519 kts | 126° |
| 2026-05-06 10:28 | 56.70289 | 4.52552 | 37052 ft | 519 kts | 126° |
| 2026-05-06 10:29 | 56.66459 | 4.63653 | 37054 ft | 518 kts | 126° |
| 2026-05-06 10:29 | 56.62617 | 4.74740 | 37044 ft | 518 kts | 126° |
| 2026-05-06 10:30 | 56.58769 | 4.85794 | 37051 ft | 518 kts | 126° |
| 2026-05-06 10:30 | 56.54912 | 4.96829 | 37049 ft | 518 kts | 126° |
| 2026-05-06 10:31 | 56.50995 | 5.07774 | 37046 ft | 517 kts | 128° |
| 2026-05-06 10:31 | 56.46970 | 5.18562 | 37042 ft | 517 kts | 128° |
| 2026-05-06 10:32 | 56.42930 | 5.29314 | 37037 ft | 517 kts | 128° |
| 2026-05-06 10:32 | 56.38899 | 5.40059 | 37038 ft | 516 kts | 128° |
| 2026-05-06 10:33 | 56.34872 | 5.50785 | 37037 ft | 516 kts | 128° |
| 2026-05-06 10:33 | 56.30837 | 5.61489 | 37038 ft | 516 kts | 128° |
| 2026-05-06 10:34 | 56.26794 | 5.72163 | 37027 ft | 516 kts | 128° |
| 2026-05-06 10:34 | 56.22744 | 5.82808 | 37036 ft | 515 kts | 128° |
| 2026-05-06 10:35 | 56.18691 | 5.93412 | 37027 ft | 515 kts | 128° |
| 2026-05-06 10:35 | 56.14628 | 6.03995 | 37016 ft | 514 kts | 128° |
| 2026-05-06 10:36 | 56.10567 | 6.14531 | 37024 ft | 513 kts | 128° |
| 2026-05-06 10:36 | 56.06502 | 6.25029 | 37019 ft | 513 kts | 128° |
| 2026-05-06 10:37 | 56.02434 | 6.35490 | 37011 ft | 512 kts | 129° |
| 2026-05-06 10:37 | 55.98363 | 6.45915 | 37017 ft | 511 kts | 129° |
| 2026-05-06 10:38 | 55.94286 | 6.56312 | 37022 ft | 511 kts | 129° |
| 2026-05-06 10:38 | 55.90201 | 6.66682 | 37010 ft | 511 kts | 129° |
| 2026-05-06 10:39 | 55.86108 | 6.77031 | 37011 ft | 511 kts | 129° |
| 2026-05-06 10:39 | 55.82008 | 6.87353 | 37000 ft | 510 kts | 129° |
| 2026-05-06 10:40 | 55.77905 | 6.97640 | 36994 ft | 510 kts | 129° |
| 2026-05-06 10:40 | 55.73796 | 7.07898 | 36995 ft | 510 kts | 129° |
| 2026-05-06 10:41 | 55.69674 | 7.18145 | 36997 ft | 510 kts | 129° |
| 2026-05-06 10:41 | 55.65551 | 7.28355 | 36986 ft | 510 kts | 129° |
| 2026-05-06 10:42 | 55.61421 | 7.38538 | 36994 ft | 509 kts | 130° |
| 2026-05-06 10:42 | 55.57283 | 7.48697 | 36988 ft | 509 kts | 130° |
| 2026-05-06 10:43 | 55.53844 | 7.57110 | 36973 ft | 508 kts | 130° |
| 2026-05-06 10:44 | 55.47630 | 7.72237 | 36977 ft | 507 kts | 130° |
| 2026-05-06 10:44 | 55.43485 | 7.82277 | 36960 ft | 506 kts | 130° |
| 2026-05-06 10:45 | 55.39337 | 7.92282 | 36967 ft | 506 kts | 130° |
| 2026-05-06 10:45 | 55.35178 | 8.02275 | 36964 ft | 506 kts | 130° |
| 2026-05-06 10:46 | 55.30985 | 8.12306 | 36962 ft | 506 kts | 130° |
| 2026-05-06 10:46 | 55.26809 | 8.22257 | 36952 ft | 507 kts | 130° |
| 2026-05-06 10:47 | 55.22650 | 8.32129 | 36935 ft | 506 kts | 130° |
| 2026-05-06 10:47 | 55.18458 | 8.42042 | 36931 ft | 507 kts | 130° |
| 2026-05-06 10:48 | 55.14260 | 8.51932 | 36938 ft | 507 kts | 130° |
| 2026-05-06 10:48 | 55.09890 | 8.61536 | 36925 ft | 500 kts | 140° |
| 2026-05-06 10:48 | 55.07271 | 8.65393 | 36883 ft | 485 kts | 147° |
| 2026-05-06 10:49 | 55.04680 | 8.69134 | 36734 ft | 483 kts | 141° |
| 2026-05-06 10:49 | 55.02331 | 8.73325 | 36580 ft | 483 kts | 135° |
| 2026-05-06 10:49 | 55.00248 | 8.77913 | 36349 ft | 483 kts | 129° |
| 2026-05-06 10:49 | 54.98448 | 8.82850 | 36171 ft | 483 kts | 123° |
| 2026-05-06 10:50 | 54.96933 | 8.88093 | 35843 ft | 487 kts | 118° |
| 2026-05-06 10:50 | 54.95643 | 8.93548 | 35486 ft | 489 kts | 115° |
| 2026-05-06 10:50 | 54.94446 | 8.99085 | 35141 ft | 489 kts | 114° |
| 2026-05-06 10:50 | 54.93286 | 9.04638 | 34815 ft | 488 kts | 114° |
| 2026-05-06 10:51 | 54.92137 | 9.10198 | 34492 ft | 487 kts | 114° |
| 2026-05-06 10:51 | 54.91004 | 9.15715 | 34256 ft | 483 kts | 114° |
| 2026-05-06 10:51 | 54.89879 | 9.21215 | 33914 ft | 483 kts | 114° |
| 2026-05-06 10:51 | 54.88760 | 9.26707 | 33432 ft | 483 kts | 114° |
| 2026-05-06 10:52 | 54.87641 | 9.32195 | 33086 ft | 479 kts | 114° |
| 2026-05-06 10:52 | 54.86530 | 9.37629 | 32745 ft | 477 kts | 114° |
| 2026-05-06 10:52 | 54.85349 | 9.42981 | 32208 ft | 473 kts | 121° |
| 2026-05-06 10:52 | 54.83421 | 9.47562 | 31599 ft | 469 kts | 141° |
| 2026-05-06 10:53 | 54.80730 | 9.50654 | 31049 ft | 463 kts | 159° |
| 2026-05-06 10:53 | 54.77661 | 9.52123 | 30327 ft | 455 kts | 174° |
| 2026-05-06 10:53 | 54.74536 | 9.52443 | 29604 ft | 447 kts | 184° |
| 2026-05-06 10:53 | 54.71465 | 9.51948 | 28899 ft | 440 kts | 188° |
| 2026-05-06 10:54 | 54.68445 | 9.51303 | 28242 ft | 435 kts | 188° |
| 2026-05-06 10:54 | 54.65457 | 9.50642 | 27600 ft | 430 kts | 189° |
| 2026-05-06 10:54 | 54.62504 | 9.49993 | 26946 ft | 426 kts | 188° |
| 2026-05-06 10:54 | 54.59579 | 9.49368 | 26350 ft | 422 kts | 188° |
| 2026-05-06 10:55 | 54.56675 | 9.48765 | 25730 ft | 419 kts | 188° |
| 2026-05-06 10:55 | 54.53786 | 9.48177 | 25125 ft | 416 kts | 188° |
| 2026-05-06 10:55 | 54.50923 | 9.47603 | 24534 ft | 413 kts | 188° |
| 2026-05-06 10:55 | 54.48074 | 9.47036 | 23951 ft | 411 kts | 188° |
| 2026-05-06 10:56 | 54.45238 | 9.46474 | 23353 ft | 410 kts | 188° |
| 2026-05-06 10:56 | 54.42410 | 9.45914 | 22677 ft | 409 kts | 188° |
| 2026-05-06 10:56 | 54.39590 | 9.45358 | 22074 ft | 406 kts | 188° |
| 2026-05-06 10:56 | 54.36836 | 9.44812 | 21487 ft | 402 kts | 188° |
| 2026-05-06 10:57 | 54.34071 | 9.44265 | 20926 ft | 398 kts | 188° |
| 2026-05-06 10:57 | 54.31328 | 9.43728 | 20377 ft | 395 kts | 187° |
| 2026-05-06 10:57 | 54.28606 | 9.43201 | 19834 ft | 392 kts | 188° |
| 2026-05-06 10:57 | 54.25905 | 9.42673 | 19301 ft | 390 kts | 188° |
| 2026-05-06 10:58 | 54.23219 | 9.42141 | 18760 ft | 388 kts | 188° |
| 2026-05-06 10:58 | 54.20546 | 9.41612 | 18225 ft | 386 kts | 187° |
| 2026-05-06 10:58 | 54.17879 | 9.41093 | 17626 ft | 385 kts | 188° |
| 2026-05-06 10:58 | 54.15228 | 9.40572 | 17056 ft | 382 kts | 188° |
| 2026-05-06 10:59 | 54.12594 | 9.40071 | 16495 ft | 379 kts | 187° |
| 2026-05-06 10:59 | 54.09961 | 9.39908 | 15929 ft | 382 kts | 179° |
| 2026-05-06 10:59 | 54.07313 | 9.40361 | 15551 ft | 382 kts | 174° |
| 2026-05-06 10:59 | 54.04664 | 9.40897 | 15151 ft | 384 kts | 174° |
| 2026-05-06 11:00 | 54.02021 | 9.41414 | 14865 ft | 381 kts | 174° |
| 2026-05-06 11:00 | 53.99391 | 9.41917 | 14624 ft | 378 kts | 175° |
| 2026-05-06 11:00 | 53.96785 | 9.42406 | 14368 ft | 376 kts | 174° |
| 2026-05-06 11:00 | 53.94187 | 9.42887 | 14092 ft | 374 kts | 174° |
| 2026-05-06 11:01 | 53.91635 | 9.43357 | 13876 ft | 365 kts | 175° |
| 2026-05-06 11:01 | 53.89144 | 9.43816 | 13686 ft | 355 kts | 174° |
| 2026-05-06 11:01 | 53.86731 | 9.44261 | 13341 ft | 341 kts | 174° |
| 2026-05-06 11:01 | 53.84409 | 9.44688 | 12795 ft | 331 kts | 174° |
| 2026-05-06 11:02 | 53.82137 | 9.45106 | 12273 ft | 329 kts | 173° |
| 2026-05-06 11:02 | 53.79844 | 9.45527 | 11775 ft | 334 kts | 173° |
| 2026-05-06 11:02 | 53.77532 | 9.45948 | 11283 ft | 334 kts | 173° |
| 2026-05-06 11:02 | 53.75223 | 9.46364 | 10783 ft | 334 kts | 173° |
| 2026-05-06 11:03 | 53.72917 | 9.46782 | 10293 ft | 333 kts | 173° |
| 2026-05-06 11:03 | 53.70614 | 9.47202 | 9815 ft | 333 kts | 173° |
| 2026-05-06 11:03 | 53.68323 | 9.47616 | 9276 ft | 324 kts | 173° |
| 2026-05-06 11:03 | 53.66157 | 9.47994 | 8709 ft | 304 kts | 173° |
| 2026-05-06 11:04 | 53.64110 | 9.48309 | 8199 ft | 287 kts | 173° |
| 2026-05-06 11:04 | 53.62163 | 9.48594 | 7646 ft | 274 kts | 174° |
| 2026-05-06 11:04 | 53.60306 | 9.48821 | 7145 ft | 262 kts | 173° |
| 2026-05-06 11:04 | 53.58517 | 9.48995 | 6641 ft | 255 kts | 173° |
| 2026-05-06 11:05 | 53.56777 | 9.49136 | 6132 ft | 246 kts | 174° |
| 2026-05-06 11:05 | 53.55100 | 9.49250 | 5582 ft | 237 kts | 174° |
| 2026-05-06 11:05 | 53.53476 | 9.49363 | 5058 ft | 230 kts | 174° |
| 2026-05-06 11:05 | 53.51895 | 9.49473 | 4535 ft | 225 kts | 174° |
| 2026-05-06 11:06 | 53.50332 | 9.49576 | 4038 ft | 227 kts | 173° |
| 2026-05-06 11:06 | 53.48737 | 9.49636 | 3540 ft | 231 kts | 172° |
| 2026-05-06 11:06 | 53.47232 | 9.50173 | 3154 ft | 213 kts | 142° |
| 2026-05-06 11:06 | 53.46060 | 9.51677 | 3064 ft | 216 kts | 133° |
| 2026-05-06 11:07 | 53.44899 | 9.53275 | 3023 ft | 213 kts | 133° |
| 2026-05-06 11:07 | 53.44051 | 9.55111 | 3012 ft | 192 kts | 102° |
| 2026-05-06 11:07 | 53.44022 | 9.57274 | 3023 ft | 186 kts | 76° |
| 2026-05-06 11:07 | 53.44361 | 9.59415 | 3028 ft | 191 kts | 74° |
| 2026-05-06 11:08 | 53.44754 | 9.61415 | 3002 ft | 175 kts | 61° |
| 2026-05-06 11:08 | 53.45462 | 9.63144 | 3061 ft | 181 kts | 56° |
| 2026-05-06 11:08 | 53.46195 | 9.64777 | 3022 ft | 170 kts | 54° |
| 2026-05-06 11:08 | 53.46913 | 9.66283 | 3014 ft | 162 kts | 53° |
| 2026-05-06 11:09 | 53.47619 | 9.67728 | 3019 ft | 159 kts | 53° |
| 2026-05-06 11:09 | 53.48328 | 9.69166 | 3030 ft | 161 kts | 53° |
| 2026-05-06 11:09 | 53.49047 | 9.70616 | 3034 ft | 162 kts | 52° |
| 2026-05-06 11:09 | 53.49769 | 9.72070 | 3033 ft | 162 kts | 52° |
| 2026-05-06 11:10 | 53.50493 | 9.73526 | 3033 ft | 162 kts | 52° |
| 2026-05-06 11:10 | 53.51217 | 9.74982 | 3026 ft | 162 kts | 52° |
| 2026-05-06 11:10 | 53.51942 | 9.76439 | 3025 ft | 162 kts | 53° |
| 2026-05-06 11:10 | 53.52665 | 9.77895 | 3005 ft | 164 kts | 53° |
| 2026-05-06 11:11 | 53.53400 | 9.79376 | 2766 ft | 163 kts | 53° |
| 2026-05-06 11:11 | 53.54106 | 9.80796 | 2556 ft | 154 kts | 52° |
| 2026-05-06 11:11 | 53.54773 | 9.82139 | 2343 ft | 145 kts | 53° |
| 2026-05-06 11:11 | 53.55414 | 9.83434 | 2146 ft | 144 kts | 52° |
| 2026-05-06 11:12 | 53.56065 | 9.84747 | 1962 ft | 148 kts | 52° |
| 2026-05-06 11:12 | 53.56725 | 9.86080 | 1764 ft | 147 kts | 51° |
| 2026-05-06 11:12 | 53.57349 | 9.87336 | 1535 ft | 131 kts | 51° |
| 2026-05-06 11:12 | 53.57902 | 9.88453 | 1396 ft | 122 kts | 51° |
| 2026-05-06 11:13 | 53.58455 | 9.89572 | 1207 ft | 125 kts | 52° |
| 2026-05-06 11:13 | 53.59022 | 9.90715 | 1005 ft | 129 kts | 50° |
| 2026-05-06 11:13 | 53.59593 | 9.91869 | 813 ft | 128 kts | 50° |
| 2026-05-06 11:13 | 53.60170 | 9.93036 | 643 ft | 135 kts | 50° |
| 2026-05-06 11:14 | 53.60777 | 9.94247 | 422 ft | 135 kts | 50° |
| 2026-05-06 11:14 | 53.61364 | 9.95432 | 274 ft | 130 kts | 50° |
| 2026-05-06 11:14 | 53.61939 | 9.96599 | 102 ft | 133 kts | 50° |
| 2026-05-06 11:14 | 53.62511 | 9.97752 | 43 ft | 116 kts | 51° |
| 2026-05-06 11:15 | 53.62901 | 9.98550 | 49 ft | 56 kts | 50° |
| 2026-05-06 11:15 | 53.63037 | 9.98824 | 47 ft | 25 kts | 53° |
| 2026-05-06 11:15 | 53.63092 | 9.99095 | 51 ft | 25 kts | 88° |
| 2026-05-06 11:15 | 53.63063 | 9.99251 | 47 ft | 7 kts | 154° |
| 2026-05-06 11:16 | 53.63017 | 9.99212 | 48 ft | 8 kts | 225° |
| 2026-05-06 11:16 | 53.62978 | 9.99137 | 47 ft | 9 kts | 229° |
| 2026-05-06 11:16 | 53.62936 | 9.99052 | 48 ft | 10 kts | 230° |
| 2026-05-06 11:16 | 53.62890 | 9.98959 | 47 ft | 11 kts | 230° |
| 2026-05-06 11:17 | 53.62823 | 9.98941 | 47 ft | 11 kts | 156° |
| 2026-05-06 11:17 | 53.62758 | 9.99000 | 45 ft | 9 kts | 132° |
| 2026-05-06 11:17 | 53.62772 | 9.99106 | 49 ft | 9 kts | 63° |
| 2026-05-06 11:17 | 53.62784 | 9.99146 | 47 ft | 0 kts | 63° |